sensor_id;sensor_type;location;lat;lon;timestamp;temperature;humidity
22974;DHT22;11653;50.848;4.584;2023-03-26T00:01:30;10.60;99.90
22974;DHT22;11653;50.848;4.584;2023-03-26T00:04:03;10.70;99.90
22974;DHT22;11653;50.848;4.584;2023-03-26T00:06:31;10.70;99.90
22974;DHT22;11653;50.848;4.584;2023-03-26T00:09:04;10.70;99.90
22974;DHT22;11653;50.848;4.584;2023-03-26T00:11:40;10.70;99.90
22974;DHT22;11653;50.848;4.584;2023-03-26T00:14:27;10.70;99.90
22974;DHT22;11653;50.848;4.584;2023-03-26T00:16:54;10.90;99.90
22974;DHT22;11653;50.848;4.584;2023-03-26T00:19:25;10.80;99.90
22974;DHT22;11653;50.848;4.584;2023-03-26T00:22:02;10.90;99.90
22974;DHT22;11653;50.848;4.584;2023-03-26T00:24:28;10.80;99.90
22974;DHT22;11653;50.848;4.584;2023-03-26T00:26:58;10.80;99.90
22974;DHT22;11653;50.848;4.584;2023-03-26T00:29:27;10.80;99.90
22974;DHT22;11653;50.848;4.584;2023-03-26T00:31:55;10.80;99.90
22974;DHT22;11653;50.848;4.584;2023-03-26T00:34:21;10.80;99.90
22974;DHT22;11653;50.848;4.584;2023-03-26T00:36:50;10.90;99.90
22974;DHT22;11653;50.848;4.584;2023-03-26T00:39:21;10.90;99.90
22974;DHT22;11653;50.848;4.584;2023-03-26T00:41:55;10.90;99.90
22974;DHT22;11653;50.848;4.584;2023-03-26T00:44:21;10.90;99.90
22974;DHT22;11653;50.848;4.584;2023-03-26T00:46:47;11.00;99.90
22974;DHT22;11653;50.848;4.584;2023-03-26T00:49:13;11.00;99.90
22974;DHT22;11653;50.848;4.584;2023-03-26T00:51:47;11.00;99.90
22974;DHT22;11653;50.848;4.584;2023-03-26T00:54:17;11.10;99.90
22974;DHT22;11653;50.848;4.584;2023-03-26T00:56:45;11.00;99.90
22974;DHT22;11653;50.848;4.584;2023-03-26T00:59:11;10.90;99.90
22974;DHT22;11653;50.848;4.584;2023-03-26T01:01:37;11.00;99.90
22974;DHT22;11653;50.848;4.584;2023-03-26T01:04:26;11.00;99.90
22974;DHT22;11653;50.848;4.584;2023-03-26T01:06:59;11.00;99.90
22974;DHT22;11653;50.848;4.584;2023-03-26T01:09:31;11.10;99.90
22974;DHT22;11653;50.848;4.584;2023-03-26T01:12:03;11.10;99.90
22974;DHT22;11653;50.848;4.584;2023-03-26T01:14:34;11.10;99.90
22974;DHT22;11653;50.848;4.584;2023-03-26T01:17:02;11.00;99.90
22974;DHT22;11653;50.848;4.584;2023-03-26T01:20:02;10.90;99.90
22974;DHT22;11653;50.848;4.584;2023-03-26T01:22:38;10.90;99.90
22974;DHT22;11653;50.848;4.584;2023-03-26T01:25:06;10.90;99.90
22974;DHT22;11653;50.848;4.584;2023-03-26T01:39:54;10.80;99.90
22974;DHT22;11653;50.848;4.584;2023-03-26T01:42:01;10.80;99.90
22974;DHT22;11653;50.848;4.584;2023-03-26T01:44:54;10.80;99.90
22974;DHT22;11653;50.848;4.584;2023-03-26T01:47:23;10.70;99.90
22974;DHT22;11653;50.848;4.584;2023-03-26T01:49:52;10.80;99.90
22974;DHT22;11653;50.848;4.584;2023-03-26T01:52:21;10.70;99.90
22974;DHT22;11653;50.848;4.584;2023-03-26T01:54:49;10.60;99.90
22974;DHT22;11653;50.848;4.584;2023-03-26T02:03:00;10.80;99.90
22974;DHT22;11653;50.848;4.584;2023-03-26T02:05:36;10.80;99.90
22974;DHT22;11653;50.848;4.584;2023-03-26T02:08:23;10.70;99.90
22974;DHT22;11653;50.848;4.584;2023-03-26T02:11:01;10.70;99.90
22974;DHT22;11653;50.848;4.584;2023-03-26T02:13:29;10.70;99.90
22974;DHT22;11653;50.848;4.584;2023-03-26T02:16:03;10.60;99.90
22974;DHT22;11653;50.848;4.584;2023-03-26T02:18:37;10.60;99.90
22974;DHT22;11653;50.848;4.584;2023-03-26T02:21:11;10.60;99.90
22974;DHT22;11653;50.848;4.584;2023-03-26T02:23:49;10.60;99.90
22974;DHT22;11653;50.848;4.584;2023-03-26T02:26:27;10.50;99.90
22974;DHT22;11653;50.848;4.584;2023-03-26T02:28:59;10.50;99.90
22974;DHT22;11653;50.848;4.584;2023-03-26T02:31:28;10.50;99.90
22974;DHT22;11653;50.848;4.584;2023-03-26T02:33:57;10.50;99.90
22974;DHT22;11653;50.848;4.584;2023-03-26T02:36:24;10.50;99.90
22974;DHT22;11653;50.848;4.584;2023-03-26T02:38:52;10.40;99.90
22974;DHT22;11653;50.848;4.584;2023-03-26T02:41:19;10.50;99.90
22974;DHT22;11653;50.848;4.584;2023-03-26T02:43:45;10.50;99.90
22974;DHT22;11653;50.848;4.584;2023-03-26T02:46:11;10.60;99.90
22974;DHT22;11653;50.848;4.584;2023-03-26T02:48:44;10.60;99.90
22974;DHT22;11653;50.848;4.584;2023-03-26T02:51:17;10.70;99.90
22974;DHT22;11653;50.848;4.584;2023-03-26T02:53:46;10.70;99.90
22974;DHT22;11653;50.848;4.584;2023-03-26T02:56:43;10.70;99.90
22974;DHT22;11653;50.848;4.584;2023-03-26T02:59:09;10.60;99.90
22974;DHT22;11653;50.848;4.584;2023-03-26T03:01:46;10.60;99.90
22974;DHT22;11653;50.848;4.584;2023-03-26T03:04:19;10.50;99.90
22974;DHT22;11653;50.848;4.584;2023-03-26T03:06:48;10.60;99.90
22974;DHT22;11653;50.848;4.584;2023-03-26T03:09:17;10.70;99.90
22974;DHT22;11653;50.848;4.584;2023-03-26T03:11:48;10.80;99.90
22974;DHT22;11653;50.848;4.584;2023-03-26T03:14:17;10.80;99.90
22974;DHT22;11653;50.848;4.584;2023-03-26T03:16:45;10.80;99.90
22974;DHT22;11653;50.848;4.584;2023-03-26T03:19:14;10.80;99.90
22974;DHT22;11653;50.848;4.584;2023-03-26T03:21:43;10.80;99.90
22974;DHT22;11653;50.848;4.584;2023-03-26T03:24:11;10.90;99.90
22974;DHT22;11653;50.848;4.584;2023-03-26T03:26:40;10.90;99.90
22974;DHT22;11653;50.848;4.584;2023-03-26T03:29:07;10.80;99.90
22974;DHT22;11653;50.848;4.584;2023-03-26T03:31:33;10.80;99.90
22974;DHT22;11653;50.848;4.584;2023-03-26T03:33:59;10.80;99.90
22974;DHT22;11653;50.848;4.584;2023-03-26T03:36:25;10.70;99.90
22974;DHT22;11653;50.848;4.584;2023-03-26T03:38:54;10.80;99.90
22974;DHT22;11653;50.848;4.584;2023-03-26T03:41:27;10.80;99.90
22974;DHT22;11653;50.848;4.584;2023-03-26T03:43:52;10.70;99.90
22974;DHT22;11653;50.848;4.584;2023-03-26T03:46:18;10.80;99.90
22974;DHT22;11653;50.848;4.584;2023-03-26T03:48:44;10.70;99.90
22974;DHT22;11653;50.848;4.584;2023-03-26T03:51:15;10.60;99.90
22974;DHT22;11653;50.848;4.584;2023-03-26T03:53:41;10.70;99.90
22974;DHT22;11653;50.848;4.584;2023-03-26T03:56:07;10.80;99.90
22974;DHT22;11653;50.848;4.584;2023-03-26T03:58:35;10.50;99.90
22974;DHT22;11653;50.848;4.584;2023-03-26T04:01:01;10.60;99.90
22974;DHT22;11653;50.848;4.584;2023-03-26T04:03:36;10.50;99.90
22974;DHT22;11653;50.848;4.584;2023-03-26T04:06:03;10.50;99.90
22974;DHT22;11653;50.848;4.584;2023-03-26T04:08:32;10.60;99.90
22974;DHT22;11653;50.848;4.584;2023-03-26T04:10:58;10.60;99.90
22974;DHT22;11653;50.848;4.584;2023-03-26T04:13:44;10.60;99.90
22974;DHT22;11653;50.848;4.584;2023-03-26T04:16:10;10.50;99.90
22974;DHT22;11653;50.848;4.584;2023-03-26T04:18:36;10.60;99.90
22974;DHT22;11653;50.848;4.584;2023-03-26T04:21:05;10.50;99.90
22974;DHT22;11653;50.848;4.584;2023-03-26T04:23:32;10.60;99.90
22974;DHT22;11653;50.848;4.584;2023-03-26T04:26:03;10.40;99.90
22974;DHT22;11653;50.848;4.584;2023-03-26T04:28:43;10.40;99.90
22974;DHT22;11653;50.848;4.584;2023-03-26T04:31:14;10.50;99.90
22974;DHT22;11653;50.848;4.584;2023-03-26T04:33:44;10.50;99.90
22974;DHT22;11653;50.848;4.584;2023-03-26T04:36:15;10.60;99.90
22974;DHT22;11653;50.848;4.584;2023-03-26T04:38:47;10.60;99.90
22974;DHT22;11653;50.848;4.584;2023-03-26T04:41:16;10.60;99.90
22974;DHT22;11653;50.848;4.584;2023-03-26T04:43:49;10.60;99.90
22974;DHT22;11653;50.848;4.584;2023-03-26T04:46:20;10.40;99.90
22974;DHT22;11653;50.848;4.584;2023-03-26T04:49:01;10.50;99.90
22974;DHT22;11653;50.848;4.584;2023-03-26T04:51:36;10.40;99.90
22974;DHT22;11653;50.848;4.584;2023-03-26T04:54:04;10.40;99.90
22974;DHT22;11653;50.848;4.584;2023-03-26T04:57:02;10.50;99.90
22974;DHT22;11653;50.848;4.584;2023-03-26T04:59:29;10.60;99.90
22974;DHT22;11653;50.848;4.584;2023-03-26T05:02:03;10.70;99.90
22974;DHT22;11653;50.848;4.584;2023-03-26T05:04:29;10.50;99.90
22974;DHT22;11653;50.848;4.584;2023-03-26T05:07:04;10.50;99.90
22974;DHT22;11653;50.848;4.584;2023-03-26T05:09:30;10.50;99.90
22974;DHT22;11653;50.848;4.584;2023-03-26T05:12:04;10.60;99.90
22974;DHT22;11653;50.848;4.584;2023-03-26T05:14:32;10.50;99.90
22974;DHT22;11653;50.848;4.584;2023-03-26T05:17:06;10.70;99.90
22974;DHT22;11653;50.848;4.584;2023-03-26T05:19:36;10.60;99.90
22974;DHT22;11653;50.848;4.584;2023-03-26T05:22:08;10.60;99.90
22974;DHT22;11653;50.848;4.584;2023-03-26T05:24:33;10.40;99.90
22974;DHT22;11653;50.848;4.584;2023-03-26T05:27:01;10.40;99.90
22974;DHT22;11653;50.848;4.584;2023-03-26T05:29:27;10.40;99.90
22974;DHT22;11653;50.848;4.584;2023-03-26T05:31:53;10.50;99.90
22974;DHT22;11653;50.848;4.584;2023-03-26T05:34:19;10.50;99.90
22974;DHT22;11653;50.848;4.584;2023-03-26T05:36:48;10.40;99.90
22974;DHT22;11653;50.848;4.584;2023-03-26T05:39:15;10.20;99.90
22974;DHT22;11653;50.848;4.584;2023-03-26T05:41:41;10.20;99.90
22974;DHT22;11653;50.848;4.584;2023-03-26T05:44:07;10.30;99.90
22974;DHT22;11653;50.848;4.584;2023-03-26T05:46:33;10.10;99.90
22974;DHT22;11653;50.848;4.584;2023-03-26T05:48:58;10.00;99.90
22974;DHT22;11653;50.848;4.584;2023-03-26T05:51:27;10.00;99.90
22974;DHT22;11653;50.848;4.584;2023-03-26T05:53:55;9.80;99.90
22974;DHT22;11653;50.848;4.584;2023-03-26T05:56:23;9.80;99.90
22974;DHT22;11653;50.848;4.584;2023-03-26T05:58:49;9.70;99.90
22974;DHT22;11653;50.848;4.584;2023-03-26T06:01:18;9.60;99.90
22974;DHT22;11653;50.848;4.584;2023-03-26T06:03:47;9.60;99.90
22974;DHT22;11653;50.848;4.584;2023-03-26T06:06:18;9.70;99.90
22974;DHT22;11653;50.848;4.584;2023-03-26T06:08:49;9.60;99.90
22974;DHT22;11653;50.848;4.584;2023-03-26T06:11:22;9.60;99.90
22974;DHT22;11653;50.848;4.584;2023-03-26T06:13:47;9.40;99.90
22974;DHT22;11653;50.848;4.584;2023-03-26T06:16:16;9.10;99.90
22974;DHT22;11653;50.848;4.584;2023-03-26T06:18:42;9.00;99.90
22974;DHT22;11653;50.848;4.584;2023-03-26T06:21:18;8.90;99.90
22974;DHT22;11653;50.848;4.584;2023-03-26T06:23:44;9.00;99.90
22974;DHT22;11653;50.848;4.584;2023-03-26T06:26:13;8.90;99.90
22974;DHT22;11653;50.848;4.584;2023-03-26T06:28:39;8.70;99.90
22974;DHT22;11653;50.848;4.584;2023-03-26T06:31:07;8.60;99.90
22974;DHT22;11653;50.848;4.584;2023-03-26T06:33:35;8.70;99.90
22974;DHT22;11653;50.848;4.584;2023-03-26T06:36:01;8.70;99.90
22974;DHT22;11653;50.848;4.584;2023-03-26T06:38:27;8.90;99.90
22974;DHT22;11653;50.848;4.584;2023-03-26T06:40:53;8.80;99.90
22974;DHT22;11653;50.848;4.584;2023-03-26T06:43:19;8.80;99.90
22974;DHT22;11653;50.848;4.584;2023-03-26T06:45:49;8.80;99.90
22974;DHT22;11653;50.848;4.584;2023-03-26T06:48:16;8.70;99.90
22974;DHT22;11653;50.848;4.584;2023-03-26T06:50:42;8.50;99.90
22974;DHT22;11653;50.848;4.584;2023-03-26T06:53:09;8.50;99.90
22974;DHT22;11653;50.848;4.584;2023-03-26T06:55:35;8.40;99.90
22974;DHT22;11653;50.848;4.584;2023-03-26T06:58:03;8.30;99.90
22974;DHT22;11653;50.848;4.584;2023-03-26T07:00:29;8.30;99.90
22974;DHT22;11653;50.848;4.584;2023-03-26T07:02:54;8.30;99.90
22974;DHT22;11653;50.848;4.584;2023-03-26T07:05:20;8.20;99.90
22974;DHT22;11653;50.848;4.584;2023-03-26T07:07:47;8.20;99.90
22974;DHT22;11653;50.848;4.584;2023-03-26T07:10:13;8.10;99.90
22974;DHT22;11653;50.848;4.584;2023-03-26T07:12:39;8.00;99.90
22974;DHT22;11653;50.848;4.584;2023-03-26T07:15:07;8.00;99.90
22974;DHT22;11653;50.848;4.584;2023-03-26T07:17:32;8.00;99.90
22974;DHT22;11653;50.848;4.584;2023-03-26T07:19:58;8.10;99.90
22974;DHT22;11653;50.848;4.584;2023-03-26T07:22:26;8.00;99.90
22974;DHT22;11653;50.848;4.584;2023-03-26T07:24:52;8.10;99.90
22974;DHT22;11653;50.848;4.584;2023-03-26T07:33:03;7.90;99.90
22974;DHT22;11653;50.848;4.584;2023-03-26T07:35:52;7.90;99.90
22974;DHT22;11653;50.848;4.584;2023-03-26T07:41:32;7.70;99.90
22974;DHT22;11653;50.848;4.584;2023-03-26T07:45:12;7.60;99.90
22974;DHT22;11653;50.848;4.584;2023-03-26T07:47:23;7.70;99.90
22974;DHT22;11653;50.848;4.584;2023-03-26T07:49:53;7.80;99.90
22974;DHT22;11653;50.848;4.584;2023-03-26T07:52:19;7.90;99.90
22974;DHT22;11653;50.848;4.584;2023-03-26T07:54:44;7.80;99.90
22974;DHT22;11653;50.848;4.584;2023-03-26T08:00:00;7.70;99.90
22974;DHT22;11653;50.848;4.584;2023-03-26T08:08:01;7.70;99.90
22974;DHT22;11653;50.848;4.584;2023-03-26T08:10:41;7.80;99.90
22974;DHT22;11653;50.848;4.584;2023-03-26T08:13:32;7.70;99.90
22974;DHT22;11653;50.848;4.584;2023-03-26T08:16:11;7.90;99.90
22974;DHT22;11653;50.848;4.584;2023-03-26T08:21:46;7.80;99.90
22974;DHT22;11653;50.848;4.584;2023-03-26T08:27:39;8.00;99.90
22974;DHT22;11653;50.848;4.584;2023-03-26T08:30:19;7.90;99.90
22974;DHT22;11653;50.848;4.584;2023-03-26T08:32:52;7.80;99.90
22974;DHT22;11653;50.848;4.584;2023-03-26T08:35:19;7.90;99.90
22974;DHT22;11653;50.848;4.584;2023-03-26T08:37:45;7.90;99.90
22974;DHT22;11653;50.848;4.584;2023-03-26T08:40:11;7.90;99.90
22974;DHT22;11653;50.848;4.584;2023-03-26T08:59:50;8.00;99.90
22974;DHT22;11653;50.848;4.584;2023-03-26T09:08:04;8.10;99.90
22974;DHT22;11653;50.848;4.584;2023-03-26T09:13:48;8.10;99.90
22974;DHT22;11653;50.848;4.584;2023-03-26T09:16:54;8.10;99.90
22974;DHT22;11653;50.848;4.584;2023-03-26T09:22:33;8.10;99.90
22974;DHT22;11653;50.848;4.584;2023-03-26T09:28:07;8.40;99.90
22974;DHT22;11653;50.848;4.584;2023-03-26T09:42:00;8.70;99.90
22974;DHT22;11653;50.848;4.584;2023-03-26T09:52:42;8.80;99.90
22974;DHT22;11653;50.848;4.584;2023-03-26T10:11:21;8.50;99.90
22974;DHT22;11653;50.848;4.584;2023-03-26T10:28:34;8.80;99.90
22974;DHT22;11653;50.848;4.584;2023-03-26T10:33:53;8.80;99.90
22974;DHT22;11653;50.848;4.584;2023-03-26T10:36:28;8.90;99.90
22974;DHT22;11653;50.848;4.584;2023-03-26T10:44:58;9.20;99.90
22974;DHT22;11653;50.848;4.584;2023-03-26T10:48:00;9.40;99.90
22974;DHT22;11653;50.848;4.584;2023-03-26T10:53:38;9.10;99.90
22974;DHT22;11653;50.848;4.584;2023-03-26T10:56:25;9.00;99.90
22974;DHT22;11653;50.848;4.584;2023-03-26T10:58:53;9.20;99.90
22974;DHT22;11653;50.848;4.584;2023-03-26T11:04:53;9.40;99.90
22974;DHT22;11653;50.848;4.584;2023-03-26T11:10:07;9.40;99.90
22974;DHT22;11653;50.848;4.584;2023-03-26T11:18:24;9.80;99.90
22974;DHT22;11653;50.848;4.584;2023-03-26T11:23:48;9.90;99.90
22974;DHT22;11653;50.848;4.584;2023-03-26T11:32:16;10.00;99.90
22974;DHT22;11653;50.848;4.584;2023-03-26T11:37:32;10.20;99.90
22974;DHT22;11653;50.848;4.584;2023-03-26T11:40:02;10.10;99.90
22974;DHT22;11653;50.848;4.584;2023-03-26T11:42:31;10.10;99.90
22974;DHT22;11653;50.848;4.584;2023-03-26T11:45:02;10.10;99.90
22974;DHT22;11653;50.848;4.584;2023-03-26T11:47:34;10.20;99.90
22974;DHT22;11653;50.848;4.584;2023-03-26T11:50:03;10.30;99.90
22974;DHT22;11653;50.848;4.584;2023-03-26T11:52:31;10.20;99.90
22974;DHT22;11653;50.848;4.584;2023-03-26T11:54:57;10.20;99.90
22974;DHT22;11653;50.848;4.584;2023-03-26T11:57:27;10.10;99.90
22974;DHT22;11653;50.848;4.584;2023-03-26T12:00:09;10.10;99.90
22974;DHT22;11653;50.848;4.584;2023-03-26T12:02:43;10.20;99.90
22974;DHT22;11653;50.848;4.584;2023-03-26T12:05:23;10.20;99.90
22974;DHT22;11653;50.848;4.584;2023-03-26T12:08:02;10.30;99.90
22974;DHT22;11653;50.848;4.584;2023-03-26T12:10:41;10.30;99.90
22974;DHT22;11653;50.848;4.584;2023-03-26T12:15:46;10.50;99.90
22974;DHT22;11653;50.848;4.584;2023-03-26T12:18:38;10.70;99.90
22974;DHT22;11653;50.848;4.584;2023-03-26T12:21:15;10.80;99.90
22974;DHT22;11653;50.848;4.584;2023-03-26T12:26:17;10.40;99.90
22974;DHT22;11653;50.848;4.584;2023-03-26T12:28:49;10.40;99.90
22974;DHT22;11653;50.848;4.584;2023-03-26T12:31:16;10.40;99.90
22974;DHT22;11653;50.848;4.584;2023-03-26T12:34:04;10.60;99.90
22974;DHT22;11653;50.848;4.584;2023-03-26T12:36:32;10.70;99.90
22974;DHT22;11653;50.848;4.584;2023-03-26T12:39:00;10.70;99.90
22974;DHT22;11653;50.848;4.584;2023-03-26T12:41:35;10.70;99.90
22974;DHT22;11653;50.848;4.584;2023-03-26T12:44:27;10.70;99.90
22974;DHT22;11653;50.848;4.584;2023-03-26T12:47:27;10.80;99.90
22974;DHT22;11653;50.848;4.584;2023-03-26T12:49:52;10.90;99.90
22974;DHT22;11653;50.848;4.584;2023-03-26T12:57:35;10.90;99.90
22974;DHT22;11653;50.848;4.584;2023-03-26T13:00:24;11.00;99.90
22974;DHT22;11653;50.848;4.584;2023-03-26T13:03:04;11.10;99.90
22974;DHT22;11653;50.848;4.584;2023-03-26T13:06:17;11.20;99.90
22974;DHT22;11653;50.848;4.584;2023-03-26T13:08:49;11.30;99.90
22974;DHT22;11653;50.848;4.584;2023-03-26T13:11:40;11.40;99.90
22974;DHT22;11653;50.848;4.584;2023-03-26T13:22:45;11.40;99.90
22974;DHT22;11653;50.848;4.584;2023-03-26T13:45:11;12.30;99.90
22974;DHT22;11653;50.848;4.584;2023-03-26T13:47:43;12.20;99.90
22974;DHT22;11653;50.848;4.584;2023-03-26T13:50:26;12.20;99.90
22974;DHT22;11653;50.848;4.584;2023-03-26T13:52:59;12.30;99.90
22974;DHT22;11653;50.848;4.584;2023-03-26T14:01:01;12.30;99.90
22974;DHT22;11653;50.848;4.584;2023-03-26T14:03:56;12.30;99.90
22974;DHT22;11653;50.848;4.584;2023-03-26T14:09:14;12.10;99.90
22974;DHT22;11653;50.848;4.584;2023-03-26T14:11:51;12.20;99.90
22974;DHT22;11653;50.848;4.584;2023-03-26T14:14:36;12.30;99.90
22974;DHT22;11653;50.848;4.584;2023-03-26T14:17:23;12.30;99.90
22974;DHT22;11653;50.848;4.584;2023-03-26T14:20:21;12.30;99.90
22974;DHT22;11653;50.848;4.584;2023-03-26T14:39:25;12.10;99.90
22974;DHT22;11653;50.848;4.584;2023-03-26T14:42:02;12.00;99.90
22974;DHT22;11653;50.848;4.584;2023-03-26T14:47:36;12.10;99.90
22974;DHT22;11653;50.848;4.584;2023-03-26T14:53:09;12.10;99.90
22974;DHT22;11653;50.848;4.584;2023-03-26T15:01:20;11.70;99.90
22974;DHT22;11653;50.848;4.584;2023-03-26T15:12:59;11.60;99.90
22974;DHT22;11653;50.848;4.584;2023-03-26T15:18:15;11.60;99.90
22974;DHT22;11653;50.848;4.584;2023-03-26T15:29:43;11.60;99.90
22974;DHT22;11653;50.848;4.584;2023-03-26T15:58:01;11.70;99.90
22974;DHT22;11653;50.848;4.584;2023-03-26T16:05:34;11.60;99.90
22974;DHT22;11653;50.848;4.584;2023-03-26T16:10:54;11.30;99.90
22974;DHT22;11653;50.848;4.584;2023-03-26T16:16:18;10.90;99.90
22974;DHT22;11653;50.848;4.584;2023-03-26T16:21:54;10.70;99.90
22974;DHT22;11653;50.848;4.584;2023-03-26T16:24:26;10.80;99.90
22974;DHT22;11653;50.848;4.584;2023-03-26T16:30:12;10.70;99.90
22974;DHT22;11653;50.848;4.584;2023-03-26T16:33:17;10.70;99.90
22974;DHT22;11653;50.848;4.584;2023-03-26T16:36:20;10.60;99.90
22974;DHT22;11653;50.848;4.584;2023-03-26T16:52:29;10.20;99.90
22974;DHT22;11653;50.848;4.584;2023-03-26T17:01:07;10.20;99.90
22974;DHT22;11653;50.848;4.584;2023-03-26T17:03:52;10.40;99.90
22974;DHT22;11653;50.848;4.584;2023-03-26T17:14:36;10.40;99.90
22974;DHT22;11653;50.848;4.584;2023-03-26T17:22:27;10.60;99.90
22974;DHT22;11653;50.848;4.584;2023-03-26T17:28:41;10.50;99.90
22974;DHT22;11653;50.848;4.584;2023-03-26T17:30:59;10.40;99.90
22974;DHT22;11653;50.848;4.584;2023-03-26T17:33:35;10.40;99.90
22974;DHT22;11653;50.848;4.584;2023-03-26T17:41:08;10.30;99.90
22974;DHT22;11653;50.848;4.584;2023-03-26T17:43:50;10.40;99.90
22974;DHT22;11653;50.848;4.584;2023-03-26T17:54:36;10.30;99.90
22974;DHT22;11653;50.848;4.584;2023-03-26T17:59:42;9.90;99.90
22974;DHT22;11653;50.848;4.584;2023-03-26T18:02:15;10.00;99.90
22974;DHT22;11653;50.848;4.584;2023-03-26T18:04:43;10.00;99.90
22974;DHT22;11653;50.848;4.584;2023-03-26T18:18:44;9.80;99.90
22974;DHT22;11653;50.848;4.584;2023-03-26T18:21:40;9.80;99.90
22974;DHT22;11653;50.848;4.584;2023-03-26T18:24:06;9.80;99.90
22974;DHT22;11653;50.848;4.584;2023-03-26T18:26:40;9.70;99.90
22974;DHT22;11653;50.848;4.584;2023-03-26T18:31:41;9.40;99.90
22974;DHT22;11653;50.848;4.584;2023-03-26T18:34:15;9.20;99.90
22974;DHT22;11653;50.848;4.584;2023-03-26T18:39:29;9.20;99.90
22974;DHT22;11653;50.848;4.584;2023-03-26T18:41:56;9.20;99.90
22974;DHT22;11653;50.848;4.584;2023-03-26T18:44:22;9.30;99.90
22974;DHT22;11653;50.848;4.584;2023-03-26T18:46:51;9.20;99.90
22974;DHT22;11653;50.848;4.584;2023-03-26T18:49:19;9.10;99.90
22974;DHT22;11653;50.848;4.584;2023-03-26T18:51:45;9.20;99.90
22974;DHT22;11653;50.848;4.584;2023-03-26T18:54:18;9.20;99.90
22974;DHT22;11653;50.848;4.584;2023-03-26T18:56:48;9.30;99.90
22974;DHT22;11653;50.848;4.584;2023-03-26T18:59:31;9.30;99.90
22974;DHT22;11653;50.848;4.584;2023-03-26T19:02:11;9.30;99.90
22974;DHT22;11653;50.848;4.584;2023-03-26T19:04:38;9.20;99.90
22974;DHT22;11653;50.848;4.584;2023-03-26T19:07:08;9.20;99.90
22974;DHT22;11653;50.848;4.584;2023-03-26T19:09:36;9.20;99.90
22974;DHT22;11653;50.848;4.584;2023-03-26T19:14:30;9.20;99.90
22974;DHT22;11653;50.848;4.584;2023-03-26T19:17:02;9.20;99.90
22974;DHT22;11653;50.848;4.584;2023-03-26T19:19:32;9.10;99.90
22974;DHT22;11653;50.848;4.584;2023-03-26T19:22:01;9.10;99.90
22974;DHT22;11653;50.848;4.584;2023-03-26T19:24:28;9.30;99.90
22974;DHT22;11653;50.848;4.584;2023-03-26T19:26:53;9.20;99.90
22974;DHT22;11653;50.848;4.584;2023-03-26T19:29:26;9.10;99.90
22974;DHT22;11653;50.848;4.584;2023-03-26T19:31:52;9.10;99.90
22974;DHT22;11653;50.848;4.584;2023-03-26T19:34:36;9.00;99.90
22974;DHT22;11653;50.848;4.584;2023-03-26T19:37:25;8.90;99.90
22974;DHT22;11653;50.848;4.584;2023-03-26T19:40:00;8.90;99.90
22974;DHT22;11653;50.848;4.584;2023-03-26T19:42:30;9.00;99.90
22974;DHT22;11653;50.848;4.584;2023-03-26T19:45:03;9.00;99.90
22974;DHT22;11653;50.848;4.584;2023-03-26T19:47:40;9.00;99.90
22974;DHT22;11653;50.848;4.584;2023-03-26T19:50:20;9.00;99.90
22974;DHT22;11653;50.848;4.584;2023-03-26T19:55:39;9.00;99.90
22974;DHT22;11653;50.848;4.584;2023-03-26T19:58:08;8.90;99.90
22974;DHT22;11653;50.848;4.584;2023-03-26T20:00:34;9.00;99.90
22974;DHT22;11653;50.848;4.584;2023-03-26T20:03:01;9.00;99.90
22974;DHT22;11653;50.848;4.584;2023-03-26T20:05:31;8.90;99.90
22974;DHT22;11653;50.848;4.584;2023-03-26T20:07:59;8.70;99.90
22974;DHT22;11653;50.848;4.584;2023-03-26T20:10:25;8.70;99.90
22974;DHT22;11653;50.848;4.584;2023-03-26T20:12:51;8.70;99.90
22974;DHT22;11653;50.848;4.584;2023-03-26T20:15:23;8.60;99.90
22974;DHT22;11653;50.848;4.584;2023-03-26T20:17:49;8.70;99.90
22974;DHT22;11653;50.848;4.584;2023-03-26T20:20:19;8.60;99.90
22974;DHT22;11653;50.848;4.584;2023-03-26T20:22:45;8.70;99.90
22974;DHT22;11653;50.848;4.584;2023-03-26T20:25:19;8.60;99.90
22974;DHT22;11653;50.848;4.584;2023-03-26T20:27:46;8.60;99.90
22974;DHT22;11653;50.848;4.584;2023-03-26T20:30:12;8.40;99.90
22974;DHT22;11653;50.848;4.584;2023-03-26T20:32:39;8.40;99.90
22974;DHT22;11653;50.848;4.584;2023-03-26T20:35:20;8.50;99.90
22974;DHT22;11653;50.848;4.584;2023-03-26T20:37:46;8.40;99.90
22974;DHT22;11653;50.848;4.584;2023-03-26T20:40:13;8.40;99.90
22974;DHT22;11653;50.848;4.584;2023-03-26T20:42:40;8.30;99.90
22974;DHT22;11653;50.848;4.584;2023-03-26T20:45:15;8.40;99.90
22974;DHT22;11653;50.848;4.584;2023-03-26T20:47:43;8.50;99.90
22974;DHT22;11653;50.848;4.584;2023-03-26T20:50:12;8.50;99.90
22974;DHT22;11653;50.848;4.584;2023-03-26T20:52:39;8.40;99.90
22974;DHT22;11653;50.848;4.584;2023-03-26T20:55:06;8.40;99.90
22974;DHT22;11653;50.848;4.584;2023-03-26T20:57:34;8.40;99.90
22974;DHT22;11653;50.848;4.584;2023-03-26T21:00:00;8.30;99.90
22974;DHT22;11653;50.848;4.584;2023-03-26T21:02:26;8.20;99.90
22974;DHT22;11653;50.848;4.584;2023-03-26T21:04:51;8.20;99.90
22974;DHT22;11653;50.848;4.584;2023-03-26T21:07:18;8.30;99.90
22974;DHT22;11653;50.848;4.584;2023-03-26T21:09:45;8.30;99.90
22974;DHT22;11653;50.848;4.584;2023-03-26T21:12:28;8.30;99.90
22974;DHT22;11653;50.848;4.584;2023-03-26T21:14:54;8.40;99.90
22974;DHT22;11653;50.848;4.584;2023-03-26T21:17:21;8.40;99.90
22974;DHT22;11653;50.848;4.584;2023-03-26T21:19:47;8.20;99.90
22974;DHT22;11653;50.848;4.584;2023-03-26T21:22:48;8.20;99.90
22974;DHT22;11653;50.848;4.584;2023-03-26T21:25:37;8.20;99.90
22974;DHT22;11653;50.848;4.584;2023-03-26T21:28:28;8.30;99.90
22974;DHT22;11653;50.848;4.584;2023-03-26T21:30:55;8.40;99.90
22974;DHT22;11653;50.848;4.584;2023-03-26T21:33:21;8.30;99.90
22974;DHT22;11653;50.848;4.584;2023-03-26T21:35:48;8.30;99.90
22974;DHT22;11653;50.848;4.584;2023-03-26T21:38:18;8.30;99.90
22974;DHT22;11653;50.848;4.584;2023-03-26T21:40:50;8.20;99.90
22974;DHT22;11653;50.848;4.584;2023-03-26T21:43:18;8.30;99.90
22974;DHT22;11653;50.848;4.584;2023-03-26T21:45:49;8.20;99.90
22974;DHT22;11653;50.848;4.584;2023-03-26T21:48:18;8.20;99.90
22974;DHT22;11653;50.848;4.584;2023-03-26T21:50:44;8.20;99.90
22974;DHT22;11653;50.848;4.584;2023-03-26T21:53:11;8.20;99.90
22974;DHT22;11653;50.848;4.584;2023-03-26T21:55:58;8.20;99.90
22974;DHT22;11653;50.848;4.584;2023-03-26T22:01:30;8.20;99.90
22974;DHT22;11653;50.848;4.584;2023-03-26T22:07:29;8.10;99.90
22974;DHT22;11653;50.848;4.584;2023-03-26T22:09:52;8.20;99.90
22974;DHT22;11653;50.848;4.584;2023-03-26T22:12:17;8.00;99.90
22974;DHT22;11653;50.848;4.584;2023-03-26T22:14:43;8.00;99.90
22974;DHT22;11653;50.848;4.584;2023-03-26T22:17:09;8.00;99.90
22974;DHT22;11653;50.848;4.584;2023-03-26T22:19:35;8.00;99.90
22974;DHT22;11653;50.848;4.584;2023-03-26T22:22:01;8.00;99.90
22974;DHT22;11653;50.848;4.584;2023-03-26T22:24:27;8.00;99.90
22974;DHT22;11653;50.848;4.584;2023-03-26T22:26:53;8.00;99.90